Terminal Aerodrome Forecast
Issued by NWS

Home | Current Version | Previous Version | Text Only | Print | Product List | Glossary On
Versions: 1 2 3 4 5 6 7 8 9 10 11 12 13 14
315
FTUS44 KBMX 291137
TAFANB
TAF
KANB 291137Z 2912/3012 36008KT P6SM SKC
     FM291700 33012G17KT P6SM SKC
     FM300000 33005KT P6SM FEW050=

USA.gov is the U.S. government's official web portal to all federal, state and local government web resources and services.